createdAt,value
2018-02-11T00:01:08.293Z,-3.40
2018-02-11T00:03:35.841Z,-3.50
2018-02-11T00:06:04.969Z,-3.40
2018-02-11T00:08:32.720Z,-3.40
2018-02-11T00:11:00.312Z,-3.40
2018-02-11T00:13:28.214Z,-3.30
2018-02-11T00:15:55.757Z,-3.20
2018-02-11T00:18:23.302Z,-3.10
2018-02-11T00:20:52.390Z,-3.00
2018-02-11T00:23:19.925Z,-3.00
2018-02-11T00:25:47.469Z,-3.00
2018-02-11T00:28:15.561Z,-2.90
2018-02-11T00:30:43.122Z,-3.00
2018-02-11T00:33:12.766Z,-2.90
2018-02-11T00:35:43.069Z,-2.70
2018-02-11T00:38:10.618Z,-2.80
2018-02-11T00:40:38.161Z,-2.80
2018-02-11T00:43:06.245Z,-2.70
2018-02-11T00:45:34.076Z,-2.70
2018-02-11T00:48:01.625Z,-2.70
2018-02-11T00:50:29.633Z,-2.70
2018-02-11T00:52:57.180Z,-2.70
2018-02-11T00:55:24.722Z,-2.70
2018-02-11T00:57:52.717Z,-2.70
2018-02-11T01:00:20.273Z,-2.60
2018-02-11T01:02:47.813Z,-2.60
2018-02-11T01:05:15.901Z,-2.60
2018-02-11T01:07:43.445Z,-2.60
2018-02-11T01:10:11.126Z,-2.60
2018-02-11T01:12:39.002Z,-2.60
2018-02-11T01:15:06.548Z,-2.50
2018-02-11T01:17:34.096Z,-2.50
2018-02-11T01:20:01.878Z,-2.60
2018-02-11T01:22:29.498Z,-2.60
2018-02-11T01:24:57.193Z,-2.60
2018-02-11T01:27:25.160Z,-2.60
2018-02-11T01:29:52.712Z,-2.60
2018-02-11T01:32:20.265Z,-2.50
2018-02-11T01:34:48.569Z,-2.50
2018-02-11T01:37:16.115Z,-2.50
2018-02-11T01:39:43.666Z,-2.50
2018-02-11T01:42:11.366Z,-2.50
2018-02-11T01:44:38.913Z,-2.50
2018-02-11T01:47:06.614Z,-2.50
2018-02-11T01:49:34.340Z,-2.50
2018-02-11T01:52:01.891Z,-2.50
2018-02-11T01:54:29.433Z,-2.50
2018-02-11T01:56:57.041Z,-2.60
2018-02-11T01:59:24.585Z,-2.50
2018-02-11T02:01:52.204Z,-2.50
2018-02-11T02:04:19.804Z,-2.50
2018-02-11T02:06:47.352Z,-2.50
2018-02-11T02:09:14.893Z,-2.50
2018-02-11T02:11:42.682Z,-2.50
2018-02-11T02:14:10.313Z,-2.50
2018-02-11T02:16:37.858Z,-2.50
2018-02-11T02:19:05.650Z,-2.50
2018-02-11T02:21:33.562Z,-2.50
2018-02-11T02:24:01.881Z,-2.50
2018-02-11T02:26:29.802Z,-2.50
2018-02-11T02:28:57.542Z,-2.50
2018-02-11T02:31:25.089Z,-2.50
2018-02-11T02:33:52.835Z,-2.50
2018-02-11T02:36:20.789Z,-2.40
2018-02-11T02:38:48.341Z,-2.40
2018-02-11T02:41:15.892Z,-2.40
2018-02-11T02:43:44.542Z,-2.40
2018-02-11T02:46:12.085Z,-2.40
2018-02-11T02:48:39.635Z,-2.40
2018-02-11T02:51:07.530Z,-2.50
2018-02-11T02:53:35.086Z,-2.40
2018-02-11T02:56:02.820Z,-2.40
2018-02-11T02:58:30.414Z,-2.40
2018-02-11T03:00:58.065Z,-2.50
2018-02-11T03:03:25.621Z,-2.50
2018-02-11T03:05:53.909Z,-2.50
2018-02-11T03:08:21.540Z,-2.50
2018-02-11T03:10:49.098Z,-2.50
2018-02-11T03:13:16.707Z,-2.50
2018-02-11T03:15:44.264Z,-2.50
2018-02-11T03:18:11.821Z,-2.50
2018-02-11T03:20:39.525Z,-2.40
2018-02-11T03:23:07.069Z,-2.50
2018-02-11T03:25:34.626Z,-2.40
2018-02-11T03:28:03.490Z,-2.50
2018-02-11T03:30:31.078Z,-2.50
2018-02-11T03:32:58.649Z,-2.40
2018-02-11T03:35:26.665Z,-2.40
2018-02-11T03:37:54.231Z,-2.40
2018-02-11T03:40:21.782Z,-2.40
2018-02-11T03:42:49.757Z,-2.40
2018-02-11T03:45:17.307Z,-2.40
2018-02-11T03:47:45.167Z,-2.40
2018-02-11T03:50:12.749Z,-2.40
2018-02-11T03:52:40.305Z,-2.40
2018-02-11T03:55:07.860Z,-2.40
2018-02-11T03:57:35.626Z,-2.40
2018-02-11T04:00:03.271Z,-2.40
2018-02-11T04:02:30.819Z,-2.40
2018-02-11T04:04:58.814Z,-2.40
2018-02-11T04:07:26.358Z,-2.50
2018-02-11T04:09:53.914Z,-2.50
2018-02-11T04:12:21.610Z,-2.50
2018-02-11T04:14:49.167Z,-2.50
2018-02-11T04:17:18.221Z,-2.40
2018-02-11T04:19:46.321Z,-2.40
2018-02-11T04:22:14.309Z,-2.40
2018-02-11T04:24:41.918Z,-2.40
2018-02-11T04:27:09.821Z,-2.40
2018-02-11T04:29:37.367Z,-2.40
2018-02-11T04:32:04.926Z,-2.40
2018-02-11T04:34:33.013Z,-2.40
2018-02-11T04:37:00.695Z,-2.30
2018-02-11T04:39:29.018Z,-2.40
2018-02-11T04:41:57.226Z,-2.40
2018-02-11T04:44:24.773Z,-2.40
2018-02-11T04:46:52.358Z,-2.40
2018-02-11T04:49:20.003Z,-2.40
2018-02-11T04:51:47.558Z,-2.40
2018-02-11T04:54:15.293Z,-2.40
2018-02-11T04:56:42.988Z,-2.40
2018-02-11T04:59:10.590Z,-2.30
2018-02-11T05:01:38.146Z,-2.30
2018-02-11T05:04:06.792Z,-2.30
2018-02-11T05:06:34.437Z,-2.30
2018-02-11T05:09:01.982Z,-2.20
2018-02-11T05:11:29.984Z,-2.20
2018-02-11T05:13:57.534Z,-2.20
2018-02-11T05:16:25.083Z,-2.20
2018-02-11T05:18:52.974Z,-2.20
2018-02-11T05:21:20.518Z,-2.20
2018-02-11T05:23:48.065Z,-2.10
2018-02-11T05:26:15.922Z,-2.10
2018-02-11T05:28:43.472Z,-2.20
2018-02-11T05:31:11.251Z,-2.10
2018-02-11T05:33:39.168Z,-2.20
2018-02-11T05:36:07.487Z,-2.10
2018-02-11T05:38:35.029Z,-2.10
2018-02-11T05:41:02.614Z,-2.10
2018-02-11T05:43:30.614Z,-2.10
2018-02-11T05:45:58.164Z,-2.00
2018-02-11T05:48:25.720Z,-2.00
2018-02-11T05:50:53.594Z,-2.00
2018-02-11T05:53:21.149Z,-1.90
2018-02-11T05:55:48.726Z,-1.90
2018-02-11T05:58:16.722Z,-1.90
2018-02-11T06:00:44.419Z,-1.80
2018-02-11T06:03:11.992Z,-1.90
2018-02-11T06:05:39.536Z,-1.90
2018-02-11T06:08:07.444Z,-1.80
2018-02-11T06:10:34.989Z,-1.80
2018-02-11T06:13:02.545Z,-1.80
2018-02-11T06:15:31.445Z,-1.80
2018-02-11T06:17:58.993Z,-1.80
2018-02-11T06:20:26.546Z,-1.80
2018-02-11T06:22:54.426Z,-1.80
2018-02-11T06:25:22.665Z,-1.80
2018-02-11T06:27:50.871Z,-1.80
2018-02-11T06:30:18.640Z,-1.80
2018-02-11T06:32:46.193Z,-1.80
2018-02-11T06:35:13.741Z,-1.80
2018-02-11T06:37:41.338Z,-1.80
2018-02-11T06:40:08.901Z,-1.80
2018-02-11T06:42:36.447Z,-1.70
2018-02-11T06:45:04.905Z,-1.70
2018-02-11T06:47:32.453Z,-1.70
2018-02-11T06:50:00.003Z,-1.70
2018-02-11T06:52:27.628Z,-1.70
2018-02-11T06:54:55.942Z,-1.70
2018-02-11T06:57:23.492Z,-1.70
2018-02-11T06:59:51.405Z,-1.70
2018-02-11T07:02:18.953Z,-1.60
2018-02-11T07:04:46.502Z,-1.60
2018-02-11T07:07:14.247Z,-1.60
2018-02-11T07:09:41.794Z,-1.60
2018-02-11T07:12:10.249Z,-1.60
2018-02-11T07:14:39.230Z,-1.60
2018-02-11T07:17:06.779Z,-1.60
2018-02-11T07:19:34.321Z,-1.50
2018-02-11T07:22:01.901Z,-1.40
2018-02-11T07:24:29.481Z,-1.50
2018-02-11T07:26:57.053Z,-1.40
2018-02-11T07:29:24.657Z,-1.40
2018-02-11T07:31:52.202Z,-1.40
2018-02-11T07:34:20.514Z,-1.40
2018-02-11T07:36:52.071Z,-1.30
2018-02-11T07:39:19.622Z,-1.30
2018-02-11T07:41:47.169Z,-1.30
2018-02-11T07:44:17.738Z,-1.20
2018-02-11T07:46:45.282Z,-1.20
2018-02-11T07:49:13.557Z,-1.10
2018-02-11T07:51:41.422Z,-1.10
2018-02-11T07:54:08.965Z,-1.10
2018-02-11T07:56:36.511Z,-1.10
2018-02-11T07:59:04.509Z,-1.20
2018-02-11T08:01:32.345Z,-1.20
2018-02-11T08:04:03.817Z,-1.20
2018-02-11T08:06:31.840Z,-1.20
2018-02-11T08:09:00.139Z,-1.10
2018-02-11T08:11:27.700Z,-1.10
2018-02-11T08:14:00.032Z,-1.10
2018-02-11T08:16:27.584Z,-1.00
2018-02-11T08:18:55.897Z,-1.00
2018-02-11T08:21:23.525Z,-1.00
2018-02-11T08:23:53.821Z,-1.00
2018-02-11T08:26:22.702Z,-1.00
2018-02-11T08:28:53.237Z,-1.00
2018-02-11T08:31:20.865Z,-1.00
2018-02-11T08:33:48.413Z,-0.90
2018-02-11T08:36:17.413Z,-1.00
2018-02-11T08:38:45.498Z,-0.90
2018-02-11T08:41:13.034Z,-0.90
2018-02-11T08:43:41.600Z,-1.00
2018-02-11T08:46:09.143Z,-0.90
2018-02-11T08:48:36.989Z,-0.90
2018-02-11T08:51:04.623Z,-0.90
2018-02-11T08:53:33.282Z,-0.80
2018-02-11T08:56:00.843Z,-0.80
2018-02-11T08:58:29.509Z,-0.80
2018-02-11T09:00:57.049Z,-0.80
2018-02-11T09:03:30.348Z,-0.80
2018-02-11T09:05:57.908Z,-0.80
2018-02-11T09:08:25.465Z,-0.80
2018-02-11T09:11:00.105Z,-0.80
2018-02-11T09:13:29.386Z,-0.70
2018-02-11T09:15:56.947Z,-0.70
2018-02-11T09:18:24.717Z,-0.70
2018-02-11T09:20:52.273Z,-0.70
2018-02-11T09:23:19.836Z,-0.70
2018-02-11T09:25:47.533Z,-0.60
2018-02-11T09:28:15.849Z,-0.60
2018-02-11T09:30:43.401Z,-0.60
2018-02-11T09:33:11.938Z,-0.60
2018-02-11T09:35:40.358Z,-0.50
2018-02-11T09:38:07.908Z,-0.50
2018-02-11T09:40:35.541Z,-0.50
2018-02-11T09:43:03.860Z,-0.50
2018-02-11T09:45:31.401Z,-0.50
2018-02-11T09:47:59.112Z,-0.50
2018-02-11T09:50:26.667Z,-0.50
2018-02-11T09:52:54.212Z,-0.50
2018-02-11T09:55:21.834Z,-0.50
2018-02-11T09:57:49.389Z,-0.50
2018-02-11T10:00:17.033Z,-0.40
2018-02-11T10:02:45.701Z,-0.50
2018-02-11T10:05:13.245Z,-0.50
2018-02-11T10:07:40.807Z,-0.40
2018-02-11T10:10:08.710Z,-0.50
2018-02-11T10:12:37.029Z,-0.50
2018-02-11T10:15:04.594Z,-0.50
2018-02-11T10:17:32.488Z,-0.50
2018-02-11T10:20:00.057Z,-0.40
2018-02-11T10:22:27.789Z,-0.40
2018-02-11T10:24:55.458Z,-0.40
2018-02-11T10:27:23.014Z,-0.40
2018-02-11T10:29:50.571Z,-0.40
2018-02-11T10:32:18.686Z,-0.50
2018-02-11T10:34:46.509Z,-0.40
2018-02-11T10:37:14.100Z,-0.40
2018-02-11T10:39:41.719Z,-0.50
2018-02-11T10:42:09.289Z,-0.50
2018-02-11T10:44:36.890Z,-0.40
2018-02-11T10:47:05.457Z,-0.40
2018-02-11T10:49:33.002Z,-0.40
2018-02-11T10:52:00.606Z,-0.40
2018-02-11T10:54:31.305Z,-0.40
2018-02-11T10:56:58.845Z,-0.40
2018-02-11T10:59:26.396Z,-0.30
2018-02-11T11:04:31.709Z,-0.30
2018-02-11T11:07:02.508Z,-0.30
2018-02-11T11:09:30.109Z,-0.30
2018-02-11T11:11:57.667Z,-0.30
2018-02-11T11:14:29.301Z,-0.30
2018-02-11T11:16:57.268Z,-0.30
2018-02-11T11:19:24.809Z,-0.30
2018-02-11T11:21:52.350Z,-0.30
2018-02-11T11:24:20.381Z,-0.30
2018-02-11T11:26:47.944Z,-0.30
2018-02-11T11:29:16.282Z,-0.30
2018-02-11T11:31:43.894Z,-0.40
2018-02-11T11:34:12.753Z,-0.30
2018-02-11T11:36:40.305Z,-0.30
2018-02-11T11:39:08.065Z,-0.20
2018-02-11T11:41:35.613Z,-0.20
2018-02-11T11:44:03.177Z,-0.20
2018-02-11T11:46:31.054Z,-0.20
2018-02-11T11:48:58.608Z,-0.30
2018-02-11T11:51:26.153Z,-0.20
2018-02-11T11:54:00.151Z,-0.20
2018-02-11T11:56:27.715Z,-0.30
2018-02-11T11:58:55.281Z,-0.20
2018-02-11T12:01:22.997Z,-0.30
2018-02-11T12:03:51.349Z,-0.30
2018-02-11T12:06:18.928Z,-0.30
2018-02-11T12:08:46.778Z,-0.30
2018-02-11T12:11:14.375Z,-0.30
2018-02-11T12:13:42.560Z,-0.40
2018-02-11T12:16:10.136Z,-0.40
2018-02-11T12:18:37.794Z,-0.30
2018-02-11T12:21:05.345Z,-0.40
2018-02-11T12:23:33.357Z,-0.40
2018-02-11T12:26:00.903Z,-0.30
2018-02-11T12:28:28.651Z,-0.40
2018-02-11T12:30:56.331Z,-0.40
2018-02-11T12:33:27.516Z,-0.40
2018-02-11T12:35:55.835Z,-0.40
2018-02-11T12:38:23.629Z,-0.50
2018-02-11T12:40:51.177Z,-0.50
2018-02-11T12:43:23.660Z,-0.40
2018-02-11T12:45:51.266Z,-0.50
2018-02-11T12:48:18.862Z,-0.50
2018-02-11T12:50:46.422Z,-0.50
2018-02-11T12:53:17.386Z,-0.50
2018-02-11T12:55:45.218Z,-0.60
2018-02-11T12:58:12.778Z,-0.60
2018-02-11T13:00:40.378Z,-0.50
2018-02-11T13:03:09.676Z,-0.50
2018-02-11T13:05:39.884Z,-0.50
2018-02-11T13:08:07.753Z,-0.60
2018-02-11T13:10:35.313Z,-0.60
2018-02-11T13:13:02.913Z,-0.60
2018-02-11T13:15:32.717Z,-0.60
2018-02-11T13:18:00.270Z,-0.50
2018-02-11T13:20:28.001Z,-0.50
2018-02-11T13:22:55.597Z,-0.60
2018-02-11T13:25:23.144Z,-0.50
2018-02-11T13:27:50.686Z,-0.60
2018-02-11T13:30:18.286Z,-0.50
2018-02-11T13:32:46.605Z,-0.60
2018-02-11T13:35:14.182Z,-0.60
2018-02-11T13:37:41.782Z,-0.60
2018-02-11T13:40:09.326Z,-0.60
2018-02-11T13:42:36.868Z,-0.60
2018-02-11T13:45:08.937Z,-0.60
2018-02-11T13:47:36.481Z,-0.60
2018-02-11T13:50:04.085Z,-0.70
2018-02-11T13:52:32.398Z,-0.60
2018-02-11T13:55:02.453Z,-0.60
2018-02-11T13:57:32.669Z,-0.60
2018-02-11T14:00:00.649Z,-0.60
2018-02-11T14:02:28.196Z,-0.70
2018-02-11T14:04:55.756Z,-0.70
2018-02-11T14:07:28.607Z,-0.70
2018-02-11T14:09:57.001Z,-0.70
2018-02-11T14:12:24.553Z,-0.70
2018-02-11T14:14:52.557Z,-0.70
2018-02-11T14:17:20.106Z,-0.80
2018-02-11T14:19:47.649Z,-0.80
2018-02-11T14:22:15.557Z,-0.80
2018-02-11T14:24:51.608Z,-0.80
2018-02-11T14:27:19.157Z,-0.80
2018-02-11T14:29:47.102Z,-0.80
2018-02-11T14:32:17.658Z,-0.90
2018-02-11T14:34:45.569Z,-0.80
2018-02-11T14:37:13.906Z,-0.70
2018-02-11T14:39:41.477Z,-0.70
2018-02-11T14:42:09.199Z,-0.80
2018-02-11T14:47:10.723Z,-0.80
2018-02-11T14:49:40.053Z,-0.90
2018-02-11T14:52:07.602Z,-0.90
2018-02-11T14:54:35.925Z,-0.80
2018-02-11T14:57:03.703Z,-0.90
2018-02-11T14:59:31.717Z,-0.90
2018-02-11T15:01:59.309Z,-0.90
2018-02-11T15:04:29.759Z,-1.00
2018-02-11T15:06:57.803Z,-1.00
2018-02-11T15:09:25.367Z,-1.00
2018-02-11T15:11:52.922Z,-1.00
2018-02-11T15:14:20.778Z,-1.00
2018-02-11T15:16:48.349Z,-1.00
2018-02-11T15:19:15.913Z,-0.90
2018-02-11T15:21:43.707Z,-0.90
2018-02-11T15:24:11.266Z,-1.00
2018-02-11T15:26:38.816Z,-1.00
2018-02-11T15:29:06.584Z,-0.90
2018-02-11T15:31:34.225Z,-1.00
2018-02-11T15:34:08.127Z,-0.90
2018-02-11T15:36:35.670Z,-0.90
2018-02-11T15:39:03.225Z,-0.90
2018-02-11T15:41:31.062Z,-0.90
2018-02-11T15:43:58.674Z,-0.90
2018-02-11T15:46:26.228Z,-0.90
2018-02-11T15:48:54.281Z,-0.90
2018-02-11T15:51:21.846Z,-0.90
2018-02-11T15:53:49.398Z,-0.90
2018-02-11T15:56:17.847Z,-1.00
2018-02-11T15:58:46.100Z,-1.00
2018-02-11T16:01:13.649Z,-1.00
2018-02-11T16:03:41.213Z,-1.00
2018-02-11T16:06:13.597Z,-1.00
2018-02-11T16:08:41.140Z,-1.00
2018-02-11T16:11:08.685Z,-1.00
2018-02-11T16:13:36.399Z,-1.10
2018-02-11T16:16:03.971Z,-1.20
2018-02-11T16:18:31.522Z,-1.20
2018-02-11T16:20:59.364Z,-1.20
2018-02-11T16:23:26.919Z,-1.10
2018-02-11T16:25:54.470Z,-1.20
2018-02-11T16:28:22.181Z,-1.10
2018-02-11T16:30:50.513Z,-1.20
2018-02-11T16:33:19.297Z,-1.20
2018-02-11T16:35:47.142Z,-1.20
2018-02-11T16:38:14.700Z,-1.10
2018-02-11T16:40:42.265Z,-1.00
2018-02-11T16:43:10.036Z,-1.10
2018-02-11T16:45:37.713Z,-1.10
2018-02-11T16:48:05.259Z,-1.10
2018-02-11T16:50:33.153Z,-1.10
2018-02-11T16:53:00.693Z,-1.20
2018-02-11T16:55:31.989Z,-1.10
2018-02-11T16:58:00.718Z,-1.20
2018-02-11T17:00:29.033Z,-1.20
2018-02-11T17:02:56.669Z,-1.20
2018-02-11T17:05:28.159Z,-1.20
2018-02-11T17:07:56.496Z,-1.20
2018-02-11T17:10:24.304Z,-1.20
2018-02-11T17:12:51.850Z,-1.20
2018-02-11T17:15:19.391Z,-1.20
2018-02-11T17:17:47.165Z,-1.20
2018-02-11T17:20:14.711Z,-1.20
2018-02-11T17:22:42.565Z,-1.20
2018-02-11T17:25:19.253Z,-1.20
2018-02-11T17:27:46.820Z,-1.20
2018-02-11T17:30:14.370Z,-1.20
2018-02-11T17:32:42.261Z,-1.20
2018-02-11T17:35:15.865Z,-1.20
2018-02-11T17:37:43.760Z,-1.20
2018-02-11T17:40:12.072Z,-1.10
2018-02-11T17:42:39.635Z,-1.20
2018-02-11T17:45:07.217Z,-1.10
2018-02-11T17:47:34.769Z,-1.10
2018-02-11T17:50:02.317Z,-1.10
2018-02-11T17:52:30.313Z,-1.10
2018-02-11T17:54:57.857Z,-1.10
2018-02-11T17:57:26.349Z,-1.10
2018-02-11T17:59:54.860Z,-1.10
2018-02-11T18:02:22.407Z,-1.10
2018-02-11T18:04:49.953Z,-1.10
2018-02-11T18:07:17.564Z,-1.10
2018-02-11T18:09:45.120Z,-1.10
2018-02-11T18:12:12.674Z,-1.10
2018-02-11T18:14:47.051Z,-1.20
2018-02-11T18:17:14.604Z,-1.20
2018-02-11T18:19:42.157Z,-1.10
2018-02-11T18:22:10.252Z,-1.10
2018-02-11T18:24:40.380Z,-1.10
2018-02-11T18:27:12.539Z,-1.20
2018-02-11T18:29:40.093Z,-1.20
2018-02-11T18:32:07.853Z,-1.00
2018-02-11T18:34:35.402Z,-1.10
2018-02-11T18:37:02.997Z,-1.20
2018-02-11T18:39:30.604Z,-1.20
2018-02-11T18:41:58.161Z,-1.10
2018-02-11T18:44:25.712Z,-1.10
2018-02-11T18:46:53.325Z,-1.10
2018-02-11T18:49:21.663Z,-1.10
2018-02-11T18:51:49.205Z,-1.10
2018-02-11T18:54:17.013Z,-1.20
2018-02-11T18:56:44.569Z,-1.20
2018-02-11T18:59:16.199Z,-1.20
2018-02-11T19:01:44.118Z,-1.10
2018-02-11T19:04:11.673Z,-1.20
2018-02-11T19:06:39.990Z,-1.20
2018-02-11T19:09:07.911Z,-1.20
2018-02-11T19:11:35.558Z,-1.20
2018-02-11T19:14:09.824Z,-1.30
2018-02-11T19:16:38.154Z,-1.20
2018-02-11T19:19:05.713Z,-1.20
2018-02-11T19:21:33.281Z,-1.30
2018-02-11T19:24:04.645Z,-1.30
2018-02-11T19:26:37.192Z,-1.20
2018-02-11T19:29:04.854Z,-1.20
2018-02-11T19:31:32.435Z,-1.20
2018-02-11T19:33:59.989Z,-1.20
2018-02-11T19:36:27.561Z,-1.20
2018-02-11T19:38:55.165Z,-1.40
2018-02-11T19:41:22.723Z,-1.30
2018-02-11T19:43:55.279Z,-1.40
2018-02-11T19:46:23.104Z,-1.40
2018-02-11T19:48:50.656Z,-1.40
2018-02-11T19:51:18.396Z,-1.40
2018-02-11T19:53:46.096Z,-1.30
2018-02-11T19:56:13.669Z,-1.30
2018-02-11T19:58:41.981Z,-1.40
2018-02-11T20:01:09.598Z,-1.40
2018-02-11T20:03:44.129Z,-1.30
2018-02-11T20:06:11.953Z,-1.30
2018-02-11T20:08:39.750Z,-1.30
2018-02-11T20:11:07.295Z,-1.20
2018-02-11T20:13:35.078Z,-1.20
2018-02-11T20:16:02.621Z,-1.20
2018-02-11T20:18:30.165Z,-1.20
2018-02-11T20:20:57.960Z,-1.30
2018-02-11T20:23:25.514Z,-1.30
2018-02-11T20:25:53.247Z,-1.30
2018-02-11T20:28:21.217Z,-1.30
2018-02-11T20:30:48.781Z,-1.30
2018-02-11T20:33:16.325Z,-1.30
2018-02-11T20:35:44.097Z,-1.30
2018-02-11T20:38:11.661Z,-1.20
2018-02-11T20:40:39.417Z,-1.30
2018-02-11T20:43:07.389Z,-1.30
2018-02-11T20:45:34.941Z,-1.20
2018-02-11T20:48:02.493Z,-1.20
2018-02-11T20:50:30.305Z,-1.20
2018-02-11T20:52:57.857Z,-1.20
2018-02-11T20:55:25.404Z,-1.20
2018-02-11T20:57:53.300Z,-1.20
2018-02-11T21:00:20.846Z,-1.20
2018-02-11T21:02:48.395Z,-1.30
2018-02-11T21:05:15.997Z,-1.30
2018-02-11T21:07:45.043Z,-1.30
2018-02-11T21:10:12.589Z,-1.30
2018-02-11T21:12:40.498Z,-1.20
2018-02-11T21:15:14.720Z,-1.20
2018-02-11T21:17:42.586Z,-1.30
2018-02-11T21:20:10.137Z,-1.30
2018-02-11T21:22:37.685Z,-1.30
2018-02-11T21:25:08.428Z,-1.40
2018-02-11T21:27:40.089Z,-1.50
2018-02-11T21:30:07.797Z,-1.50
2018-02-11T21:32:35.353Z,-1.30
2018-02-11T21:35:06.771Z,-1.40
2018-02-11T21:37:36.768Z,-1.40
2018-02-11T21:40:05.566Z,-1.40
2018-02-11T21:42:34.149Z,-1.40
2018-02-11T21:45:02.450Z,-1.40
2018-02-11T21:47:30.773Z,-1.30
2018-02-11T21:49:58.317Z,-1.30
2018-02-11T21:52:30.120Z,-1.40
2018-02-11T21:54:57.952Z,-1.30
2018-02-11T21:57:25.496Z,-1.30
2018-02-11T21:59:53.318Z,-1.20
2018-02-11T22:02:20.859Z,-1.20
2018-02-11T22:04:48.403Z,-1.30
2018-02-11T22:07:16.281Z,-1.30
2018-02-11T22:09:43.816Z,-1.20
2018-02-11T22:12:11.362Z,-1.30
2018-02-11T22:14:38.952Z,-1.20
2018-02-11T22:17:10.673Z,-1.20
2018-02-11T22:19:39.288Z,-1.10
2018-02-11T22:22:08.209Z,-1.10
2018-02-11T22:24:36.365Z,-1.10
2018-02-11T22:27:03.919Z,-1.20
2018-02-11T22:29:31.473Z,-1.20
2018-02-11T22:32:03.081Z,-1.20
2018-02-11T22:34:30.626Z,-1.20
2018-02-11T22:36:58.180Z,-1.20
2018-02-11T22:39:25.940Z,-1.20
2018-02-11T22:41:55.045Z,-1.30
2018-02-11T22:44:22.767Z,-1.30
2018-02-11T22:46:51.548Z,-1.20
2018-02-11T22:49:19.092Z,-1.30
2018-02-11T22:51:47.409Z,-1.30
2018-02-11T22:54:16.898Z,-1.30
2018-02-11T22:56:44.789Z,-1.20
2018-02-11T22:59:12.336Z,-1.10
2018-02-11T23:01:45.553Z,-1.20
2018-02-11T23:04:14.060Z,-1.10
2018-02-11T23:06:41.630Z,-1.10
2018-02-11T23:09:09.553Z,-1.10
2018-02-11T23:11:37.100Z,-1.10
2018-02-11T23:14:04.648Z,-1.10
2018-02-11T23:16:32.553Z,-1.00
2018-02-11T23:19:01.020Z,-1.00
2018-02-11T23:21:30.221Z,-1.00
2018-02-11T23:23:58.776Z,-1.00
2018-02-11T23:26:27.951Z,-1.00
2018-02-11T23:28:56.249Z,-0.90
2018-02-11T23:31:24.453Z,-1.00
2018-02-11T23:33:52.409Z,-1.00
2018-02-11T23:36:19.956Z,-0.90
2018-02-11T23:38:48.144Z,-0.90
2018-02-11T23:41:15.690Z,-0.90
2018-02-11T23:43:43.238Z,-0.90
2018-02-11T23:46:12.473Z,-0.90
2018-02-11T23:48:40.033Z,-0.90
2018-02-11T23:51:07.628Z,-0.90
2018-02-11T23:53:36.480Z,-0.80
2018-02-11T23:56:04.033Z,-0.80
2018-02-11T23:58:31.920Z,-0.80
